sensor_id;sensor_type;location;lat;lon;timestamp;P1;durP1;ratioP1;P2;durP2;ratioP2
13592;SDS011;6867;50.998;4.250;2023-10-08T00:00:23;4.22;;;2.85;;
13592;SDS011;6867;50.998;4.250;2023-10-08T00:03:09;9.85;;;2.60;;
13592;SDS011;6867;50.998;4.250;2023-10-08T00:05:36;6.25;;;2.28;;
13592;SDS011;6867;50.998;4.250;2023-10-08T00:08:04;4.38;;;2.30;;
13592;SDS011;6867;50.998;4.250;2023-10-08T00:10:34;3.88;;;2.60;;
13592;SDS011;6867;50.998;4.250;2023-10-08T00:13:02;4.32;;;2.22;;
13592;SDS011;6867;50.998;4.250;2023-10-08T00:15:32;3.75;;;2.47;;
13592;SDS011;6867;50.998;4.250;2023-10-08T00:18:01;4.47;;;2.42;;
13592;SDS011;6867;50.998;4.250;2023-10-08T00:20:31;5.22;;;2.50;;
13592;SDS011;6867;50.998;4.250;2023-10-08T00:23:08;2.70;;;2.00;;
13592;SDS011;6867;50.998;4.250;2023-10-08T00:25:35;3.55;;;2.80;;
13592;SDS011;6867;50.998;4.250;2023-10-08T00:28:06;4.15;;;2.45;;
13592;SDS011;6867;50.998;4.250;2023-10-08T00:30:38;4.68;;;2.47;;
13592;SDS011;6867;50.998;4.250;2023-10-08T00:33:06;4.05;;;2.60;;
13592;SDS011;6867;50.998;4.250;2023-10-08T00:35:38;4.22;;;2.50;;
13592;SDS011;6867;50.998;4.250;2023-10-08T00:38:05;4.70;;;2.53;;
13592;SDS011;6867;50.998;4.250;2023-10-08T00:40:36;4.55;;;2.60;;
13592;SDS011;6867;50.998;4.250;2023-10-08T00:43:05;4.65;;;2.55;;
13592;SDS011;6867;50.998;4.250;2023-10-08T00:45:35;6.43;;;3.13;;
13592;SDS011;6867;50.998;4.250;2023-10-08T00:48:08;4.68;;;2.53;;
13592;SDS011;6867;50.998;4.250;2023-10-08T00:50:37;6.38;;;3.25;;
13592;SDS011;6867;50.998;4.250;2023-10-08T00:53:09;3.75;;;2.67;;
13592;SDS011;6867;50.998;4.250;2023-10-08T00:55:42;5.25;;;2.95;;
13592;SDS011;6867;50.998;4.250;2023-10-08T00:58:17;3.63;;;2.75;;
13592;SDS011;6867;50.998;4.250;2023-10-08T01:00:50;5.72;;;2.65;;
13592;SDS011;6867;50.998;4.250;2023-10-08T01:03:18;6.63;;;2.40;;
13592;SDS011;6867;50.998;4.250;2023-10-08T01:05:46;5.72;;;3.08;;
13592;SDS011;6867;50.998;4.250;2023-10-08T01:08:13;5.20;;;2.30;;
13592;SDS011;6867;50.998;4.250;2023-10-08T01:10:47;6.80;;;3.00;;
13592;SDS011;6867;50.998;4.250;2023-10-08T01:13:23;6.20;;;3.65;;
13592;SDS011;6867;50.998;4.250;2023-10-08T01:15:51;5.00;;;3.30;;
13592;SDS011;6867;50.998;4.250;2023-10-08T01:18:20;3.92;;;2.92;;
13592;SDS011;6867;50.998;4.250;2023-10-08T01:20:57;5.47;;;3.35;;
13592;SDS011;6867;50.998;4.250;2023-10-08T01:23:33;4.78;;;2.97;;
13592;SDS011;6867;50.998;4.250;2023-10-08T01:26:00;8.07;;;3.13;;
13592;SDS011;6867;50.998;4.250;2023-10-08T01:28:35;4.68;;;2.75;;
13592;SDS011;6867;50.998;4.250;2023-10-08T01:31:02;5.15;;;2.85;;
13592;SDS011;6867;50.998;4.250;2023-10-08T01:33:31;7.57;;;2.95;;
13592;SDS011;6867;50.998;4.250;2023-10-08T01:36:03;6.57;;;2.90;;
13592;SDS011;6867;50.998;4.250;2023-10-08T01:38:30;5.30;;;2.53;;
13592;SDS011;6867;50.998;4.250;2023-10-08T01:40:59;4.85;;;2.88;;
13592;SDS011;6867;50.998;4.250;2023-10-08T01:43:29;5.85;;;3.03;;
13592;SDS011;6867;50.998;4.250;2023-10-08T01:45:56;4.57;;;2.72;;
13592;SDS011;6867;50.998;4.250;2023-10-08T01:48:23;4.60;;;2.65;;
13592;SDS011;6867;50.998;4.250;2023-10-08T01:50:53;6.07;;;3.85;;
13592;SDS011;6867;50.998;4.250;2023-10-08T01:53:21;5.75;;;3.17;;
13592;SDS011;6867;50.998;4.250;2023-10-08T01:55:48;4.63;;;2.90;;
13592;SDS011;6867;50.998;4.250;2023-10-08T01:58:21;6.38;;;3.08;;
13592;SDS011;6867;50.998;4.250;2023-10-08T02:00:48;6.68;;;3.72;;
13592;SDS011;6867;50.998;4.250;2023-10-08T02:03:17;5.67;;;3.33;;
13592;SDS011;6867;50.998;4.250;2023-10-08T02:05:44;6.43;;;3.00;;
13592;SDS011;6867;50.998;4.250;2023-10-08T02:08:12;6.35;;;2.70;;
13592;SDS011;6867;50.998;4.250;2023-10-08T02:10:42;5.80;;;3.05;;
13592;SDS011;6867;50.998;4.250;2023-10-08T02:13:12;6.70;;;2.70;;
13592;SDS011;6867;50.998;4.250;2023-10-08T02:15:42;6.47;;;3.20;;
13592;SDS011;6867;50.998;4.250;2023-10-08T02:18:10;8.20;;;3.28;;
13592;SDS011;6867;50.998;4.250;2023-10-08T02:20:38;5.03;;;2.77;;
13592;SDS011;6867;50.998;4.250;2023-10-08T02:23:06;5.80;;;2.92;;
13592;SDS011;6867;50.998;4.250;2023-10-08T02:25:33;7.80;;;3.30;;
13592;SDS011;6867;50.998;4.250;2023-10-08T02:28:01;6.37;;;3.40;;
13592;SDS011;6867;50.998;4.250;2023-10-08T02:30:29;6.32;;;2.90;;
13592;SDS011;6867;50.998;4.250;2023-10-08T02:32:57;5.50;;;3.00;;
13592;SDS011;6867;50.998;4.250;2023-10-08T02:35:24;6.05;;;2.72;;
13592;SDS011;6867;50.998;4.250;2023-10-08T02:37:52;5.47;;;2.72;;
13592;SDS011;6867;50.998;4.250;2023-10-08T02:40:20;12.02;;;3.50;;
13592;SDS011;6867;50.998;4.250;2023-10-08T02:42:52;7.72;;;3.22;;
13592;SDS011;6867;50.998;4.250;2023-10-08T02:45:23;5.85;;;3.42;;
13592;SDS011;6867;50.998;4.250;2023-10-08T02:47:50;5.43;;;3.13;;
13592;SDS011;6867;50.998;4.250;2023-10-08T02:50:19;5.40;;;2.83;;
13592;SDS011;6867;50.998;4.250;2023-10-08T02:52:47;5.87;;;2.90;;
13592;SDS011;6867;50.998;4.250;2023-10-08T02:55:15;6.53;;;3.40;;
13592;SDS011;6867;50.998;4.250;2023-10-08T02:57:53;8.25;;;2.90;;
13592;SDS011;6867;50.998;4.250;2023-10-08T03:00:21;4.72;;;2.90;;
13592;SDS011;6867;50.998;4.250;2023-10-08T03:02:54;6.57;;;3.45;;
13592;SDS011;6867;50.998;4.250;2023-10-08T03:05:23;6.43;;;3.33;;
13592;SDS011;6867;50.998;4.250;2023-10-08T03:07:54;6.55;;;3.38;;
13592;SDS011;6867;50.998;4.250;2023-10-08T03:10:23;6.25;;;3.05;;
13592;SDS011;6867;50.998;4.250;2023-10-08T03:12:57;4.70;;;3.20;;
13592;SDS011;6867;50.998;4.250;2023-10-08T03:15:29;7.20;;;3.15;;
13592;SDS011;6867;50.998;4.250;2023-10-08T03:18:04;5.55;;;3.05;;
13592;SDS011;6867;50.998;4.250;2023-10-08T03:20:36;6.75;;;3.20;;
13592;SDS011;6867;50.998;4.250;2023-10-08T03:23:09;5.55;;;3.28;;
13592;SDS011;6867;50.998;4.250;2023-10-08T03:25:52;5.30;;;3.30;;
13592;SDS011;6867;50.998;4.250;2023-10-08T03:28:24;4.30;;;2.67;;
13592;SDS011;6867;50.998;4.250;2023-10-08T03:30:53;3.90;;;2.60;;
13592;SDS011;6867;50.998;4.250;2023-10-08T03:33:28;3.78;;;2.90;;
13592;SDS011;6867;50.998;4.250;2023-10-08T03:36:00;7.22;;;3.50;;
13592;SDS011;6867;50.998;4.250;2023-10-08T03:38:34;4.90;;;2.85;;
13592;SDS011;6867;50.998;4.250;2023-10-08T03:41:11;6.10;;;2.90;;
13592;SDS011;6867;50.998;4.250;2023-10-08T03:43:41;4.70;;;3.28;;
13592;SDS011;6867;50.998;4.250;2023-10-08T03:46:17;4.80;;;2.75;;
13592;SDS011;6867;50.998;4.250;2023-10-08T03:48:46;7.30;;;3.30;;
13592;SDS011;6867;50.998;4.250;2023-10-08T03:51:17;4.82;;;3.17;;
13592;SDS011;6867;50.998;4.250;2023-10-08T03:53:46;6.10;;;3.45;;
13592;SDS011;6867;50.998;4.250;2023-10-08T03:56:40;4.23;;;3.50;;
13592;SDS011;6867;50.998;4.250;2023-10-08T03:59:10;4.03;;;2.90;;
13592;SDS011;6867;50.998;4.250;2023-10-08T04:01:39;4.85;;;2.95;;
13592;SDS011;6867;50.998;4.250;2023-10-08T04:04:06;7.70;;;3.47;;
13592;SDS011;6867;50.998;4.250;2023-10-08T04:06:39;5.47;;;3.00;;
13592;SDS011;6867;50.998;4.250;2023-10-08T04:09:13;6.10;;;3.15;;
13592;SDS011;6867;50.998;4.250;2023-10-08T04:11:49;6.07;;;3.50;;
13592;SDS011;6867;50.998;4.250;2023-10-08T04:14:21;6.53;;;3.47;;
13592;SDS011;6867;50.998;4.250;2023-10-08T04:16:49;4.88;;;3.42;;
13592;SDS011;6867;50.998;4.250;2023-10-08T04:19:17;7.22;;;3.45;;
13592;SDS011;6867;50.998;4.250;2023-10-08T04:21:47;5.00;;;3.57;;
13592;SDS011;6867;50.998;4.250;2023-10-08T04:24:19;8.30;;;3.73;;
13592;SDS011;6867;50.998;4.250;2023-10-08T04:26:59;8.67;;;3.73;;
13592;SDS011;6867;50.998;4.250;2023-10-08T04:29:28;5.60;;;3.23;;
13592;SDS011;6867;50.998;4.250;2023-10-08T04:31:57;6.67;;;3.60;;
13592;SDS011;6867;50.998;4.250;2023-10-08T04:34:33;4.73;;;3.30;;
13592;SDS011;6867;50.998;4.250;2023-10-08T04:37:01;4.50;;;3.47;;
13592;SDS011;6867;50.998;4.250;2023-10-08T04:39:29;4.00;;;3.23;;
13592;SDS011;6867;50.998;4.250;2023-10-08T04:41:59;6.53;;;3.60;;
13592;SDS011;6867;50.998;4.250;2023-10-08T04:44:32;6.23;;;3.80;;
13592;SDS011;6867;50.998;4.250;2023-10-08T04:46:58;8.73;;;4.27;;
13592;SDS011;6867;50.998;4.250;2023-10-08T04:49:30;6.47;;;3.63;;
13592;SDS011;6867;50.998;4.250;2023-10-08T04:51:59;7.70;;;4.03;;
13592;SDS011;6867;50.998;4.250;2023-10-08T04:54:31;6.37;;;3.77;;
13592;SDS011;6867;50.998;4.250;2023-10-08T04:56:58;9.30;;;3.73;;
13592;SDS011;6867;50.998;4.250;2023-10-08T04:59:26;4.50;;;3.30;;
13592;SDS011;6867;50.998;4.250;2023-10-08T05:01:59;6.97;;;3.77;;
13592;SDS011;6867;50.998;4.250;2023-10-08T05:04:44;8.90;;;3.83;;
13592;SDS011;6867;50.998;4.250;2023-10-08T05:07:43;6.77;;;3.90;;
13592;SDS011;6867;50.998;4.250;2023-10-08T05:10:55;8.23;;;3.20;;
13592;SDS011;6867;50.998;4.250;2023-10-08T05:13:40;8.13;;;4.20;;
13592;SDS011;6867;50.998;4.250;2023-10-08T05:16:20;6.40;;;4.30;;
13592;SDS011;6867;50.998;4.250;2023-10-08T05:19:01;5.40;;;3.97;;
13592;SDS011;6867;50.998;4.250;2023-10-08T05:21:50;7.70;;;4.03;;
13592;SDS011;6867;50.998;4.250;2023-10-08T05:24:27;8.13;;;3.77;;
13592;SDS011;6867;50.998;4.250;2023-10-08T05:27:04;7.20;;;3.97;;
13592;SDS011;6867;50.998;4.250;2023-10-08T05:29:49;7.43;;;3.83;;
13592;SDS011;6867;50.998;4.250;2023-10-08T05:32:39;6.03;;;4.27;;
13592;SDS011;6867;50.998;4.250;2023-10-08T05:35:29;8.55;;;4.65;;
13592;SDS011;6867;50.998;4.250;2023-10-08T05:38:14;6.63;;;4.27;;
13592;SDS011;6867;50.998;4.250;2023-10-08T05:40:41;9.40;;;4.03;;
13592;SDS011;6867;50.998;4.250;2023-10-08T05:43:39;8.67;;;3.77;;
13592;SDS011;6867;50.998;4.250;2023-10-08T05:46:20;6.50;;;4.13;;
13592;SDS011;6867;50.998;4.250;2023-10-08T05:49:12;11.70;;;4.50;;
13592;SDS011;6867;50.998;4.250;2023-10-08T05:52:01;6.77;;;4.30;;
13592;SDS011;6867;50.998;4.250;2023-10-08T05:54:53;5.53;;;3.93;;
13592;SDS011;6867;50.998;4.250;2023-10-08T05:57:37;7.40;;;4.43;;
13592;SDS011;6867;50.998;4.250;2023-10-08T06:00:13;6.10;;;3.43;;
13592;SDS011;6867;50.998;4.250;2023-10-08T06:02:55;5.63;;;3.80;;
13592;SDS011;6867;50.998;4.250;2023-10-08T06:05:35;7.50;;;4.07;;
13592;SDS011;6867;50.998;4.250;2023-10-08T06:08:11;6.55;;;4.28;;
13592;SDS011;6867;50.998;4.250;2023-10-08T06:10:38;7.23;;;4.63;;
13592;SDS011;6867;50.998;4.250;2023-10-08T06:13:21;4.35;;;3.72;;
13592;SDS011;6867;50.998;4.250;2023-10-08T06:15:56;6.03;;;4.03;;
13592;SDS011;6867;50.998;4.250;2023-10-08T06:18:33;7.70;;;4.03;;
13592;SDS011;6867;50.998;4.250;2023-10-08T06:21:00;8.40;;;4.63;;
13592;SDS011;6867;50.998;4.250;2023-10-08T06:23:33;6.93;;;3.88;;
13592;SDS011;6867;50.998;4.250;2023-10-08T06:26:01;8.95;;;4.30;;
13592;SDS011;6867;50.998;4.250;2023-10-08T06:28:39;6.50;;;3.92;;
13592;SDS011;6867;50.998;4.250;2023-10-08T06:31:09;7.47;;;3.78;;
13592;SDS011;6867;50.998;4.250;2023-10-08T06:33:41;9.00;;;3.97;;
13592;SDS011;6867;50.998;4.250;2023-10-08T06:36:09;5.20;;;3.75;;
13592;SDS011;6867;50.998;4.250;2023-10-08T06:38:42;7.47;;;3.97;;
13592;SDS011;6867;50.998;4.250;2023-10-08T06:41:10;6.65;;;4.30;;
13592;SDS011;6867;50.998;4.250;2023-10-08T06:43:43;7.57;;;3.97;;
13592;SDS011;6867;50.998;4.250;2023-10-08T06:46:14;7.72;;;4.55;;
13592;SDS011;6867;50.998;4.250;2023-10-08T06:48:44;8.32;;;4.65;;
13592;SDS011;6867;50.998;4.250;2023-10-08T06:51:14;9.48;;;4.97;;
13592;SDS011;6867;50.998;4.250;2023-10-08T06:53:44;8.65;;;5.40;;
13592;SDS011;6867;50.998;4.250;2023-10-08T06:56:11;9.77;;;5.60;;
13592;SDS011;6867;50.998;4.250;2023-10-08T06:58:39;9.25;;;6.32;;
13592;SDS011;6867;50.998;4.250;2023-10-08T07:01:11;10.38;;;6.00;;
13592;SDS011;6867;50.998;4.250;2023-10-08T07:03:39;8.82;;;6.70;;
13592;SDS011;6867;50.998;4.250;2023-10-08T07:06:06;9.13;;;6.07;;
13592;SDS011;6867;50.998;4.250;2023-10-08T07:08:51;9.40;;;5.85;;
13592;SDS011;6867;50.998;4.250;2023-10-08T07:11:20;9.00;;;5.25;;
13592;SDS011;6867;50.998;4.250;2023-10-08T07:13:47;7.65;;;5.03;;
13592;SDS011;6867;50.998;4.250;2023-10-08T07:16:15;9.63;;;4.72;;
13592;SDS011;6867;50.998;4.250;2023-10-08T07:18:44;7.13;;;4.70;;
13592;SDS011;6867;50.998;4.250;2023-10-08T07:21:15;10.25;;;4.00;;
13592;SDS011;6867;50.998;4.250;2023-10-08T07:23:41;6.93;;;4.18;;
13592;SDS011;6867;50.998;4.250;2023-10-08T07:26:21;5.93;;;4.03;;
13592;SDS011;6867;50.998;4.250;2023-10-08T07:28:50;7.90;;;3.92;;
13592;SDS011;6867;50.998;4.250;2023-10-08T07:31:19;5.38;;;3.72;;
13592;SDS011;6867;50.998;4.250;2023-10-08T07:33:49;9.18;;;4.43;;
13592;SDS011;6867;50.998;4.250;2023-10-08T07:36:21;6.78;;;4.25;;
13592;SDS011;6867;50.998;4.250;2023-10-08T07:38:48;10.23;;;4.55;;
13592;SDS011;6867;50.998;4.250;2023-10-08T07:41:15;8.07;;;4.10;;
13592;SDS011;6867;50.998;4.250;2023-10-08T07:43:44;7.03;;;4.10;;
13592;SDS011;6867;50.998;4.250;2023-10-08T07:46:18;6.68;;;4.93;;
13592;SDS011;6867;50.998;4.250;2023-10-08T07:48:44;6.72;;;4.03;;
13592;SDS011;6867;50.998;4.250;2023-10-08T07:51:14;6.70;;;3.85;;
13592;SDS011;6867;50.998;4.250;2023-10-08T07:53:41;6.15;;;4.30;;
13592;SDS011;6867;50.998;4.250;2023-10-08T07:56:08;5.78;;;3.80;;
13592;SDS011;6867;50.998;4.250;2023-10-08T07:58:36;13.27;;;8.40;;
13592;SDS011;6867;50.998;4.250;2023-10-08T08:01:03;7.53;;;5.45;;
13592;SDS011;6867;50.998;4.250;2023-10-08T08:03:32;7.72;;;4.57;;
13592;SDS011;6867;50.998;4.250;2023-10-08T08:06:01;6.47;;;3.90;;
13592;SDS011;6867;50.998;4.250;2023-10-08T08:08:32;6.70;;;3.70;;
13592;SDS011;6867;50.998;4.250;2023-10-08T08:11:01;8.13;;;4.20;;
13592;SDS011;6867;50.998;4.250;2023-10-08T08:13:32;9.20;;;4.20;;
13592;SDS011;6867;50.998;4.250;2023-10-08T08:15:59;7.55;;;4.13;;
13592;SDS011;6867;50.998;4.250;2023-10-08T08:18:35;6.60;;;4.47;;
13592;SDS011;6867;50.998;4.250;2023-10-08T08:21:03;11.25;;;4.40;;
13592;SDS011;6867;50.998;4.250;2023-10-08T08:23:30;8.15;;;4.45;;
13592;SDS011;6867;50.998;4.250;2023-10-08T08:25:59;10.93;;;4.45;;
13592;SDS011;6867;50.998;4.250;2023-10-08T08:28:36;8.35;;;4.35;;
13592;SDS011;6867;50.998;4.250;2023-10-08T08:31:04;8.38;;;4.22;;
13592;SDS011;6867;50.998;4.250;2023-10-08T08:33:38;11.30;;;5.22;;
13592;SDS011;6867;50.998;4.250;2023-10-08T08:36:18;10.27;;;4.25;;
13592;SDS011;6867;50.998;4.250;2023-10-08T08:38:45;10.07;;;4.15;;
13592;SDS011;6867;50.998;4.250;2023-10-08T08:41:14;10.45;;;4.82;;
13592;SDS011;6867;50.998;4.250;2023-10-08T08:43:43;9.18;;;4.22;;
13592;SDS011;6867;50.998;4.250;2023-10-08T08:46:11;11.60;;;4.78;;
13592;SDS011;6867;50.998;4.250;2023-10-08T08:48:39;7.47;;;4.72;;
13592;SDS011;6867;50.998;4.250;2023-10-08T08:51:07;12.35;;;4.55;;
13592;SDS011;6867;50.998;4.250;2023-10-08T08:53:35;12.80;;;5.00;;
13592;SDS011;6867;50.998;4.250;2023-10-08T08:56:02;8.95;;;5.10;;
13592;SDS011;6867;50.998;4.250;2023-10-08T08:58:33;10.07;;;4.70;;
13592;SDS011;6867;50.998;4.250;2023-10-08T09:01:01;8.20;;;4.70;;
13592;SDS011;6867;50.998;4.250;2023-10-08T09:03:28;14.75;;;5.28;;
13592;SDS011;6867;50.998;4.250;2023-10-08T09:05:56;12.43;;;6.07;;
13592;SDS011;6867;50.998;4.250;2023-10-08T09:08:26;9.98;;;5.25;;
13592;SDS011;6867;50.998;4.250;2023-10-08T09:10:57;12.55;;;5.78;;
13592;SDS011;6867;50.998;4.250;2023-10-08T09:13:26;10.63;;;4.75;;
13592;SDS011;6867;50.998;4.250;2023-10-08T09:15:57;11.35;;;5.82;;
13592;SDS011;6867;50.998;4.250;2023-10-08T09:18:29;13.73;;;5.53;;
13592;SDS011;6867;50.998;4.250;2023-10-08T09:21:04;13.27;;;5.38;;
13592;SDS011;6867;50.998;4.250;2023-10-08T09:23:36;10.27;;;5.15;;
13592;SDS011;6867;50.998;4.250;2023-10-08T09:26:08;13.07;;;6.00;;
13592;SDS011;6867;50.998;4.250;2023-10-08T09:28:35;9.70;;;5.30;;
13592;SDS011;6867;50.998;4.250;2023-10-08T09:31:05;10.77;;;5.95;;
13592;SDS011;6867;50.998;4.250;2023-10-08T09:33:32;19.15;;;5.82;;
13592;SDS011;6867;50.998;4.250;2023-10-08T09:35:58;7.45;;;4.55;;
13592;SDS011;6867;50.998;4.250;2023-10-08T09:38:28;8.73;;;5.13;;
13592;SDS011;6867;50.998;4.250;2023-10-08T09:40:55;10.55;;;5.78;;
13592;SDS011;6867;50.998;4.250;2023-10-08T09:43:23;14.93;;;5.85;;
13592;SDS011;6867;50.998;4.250;2023-10-08T09:45:51;12.25;;;6.07;;
13592;SDS011;6867;50.998;4.250;2023-10-08T09:48:24;10.32;;;6.55;;
13592;SDS011;6867;50.998;4.250;2023-10-08T09:50:52;9.68;;;5.75;;
13592;SDS011;6867;50.998;4.250;2023-10-08T09:53:26;16.40;;;6.32;;
13592;SDS011;6867;50.998;4.250;2023-10-08T09:56:00;14.82;;;6.30;;
13592;SDS011;6867;50.998;4.250;2023-10-08T09:58:30;15.10;;;6.95;;
13592;SDS011;6867;50.998;4.250;2023-10-08T10:00:57;15.23;;;5.75;;
13592;SDS011;6867;50.998;4.250;2023-10-08T10:03:26;12.43;;;6.10;;
13592;SDS011;6867;50.998;4.250;2023-10-08T10:05:53;15.10;;;6.10;;
13592;SDS011;6867;50.998;4.250;2023-10-08T10:08:23;16.10;;;6.05;;
13592;SDS011;6867;50.998;4.250;2023-10-08T10:10:57;11.93;;;5.50;;
13592;SDS011;6867;50.998;4.250;2023-10-08T10:13:27;13.07;;;6.40;;
13592;SDS011;6867;50.998;4.250;2023-10-08T10:15:54;10.52;;;5.75;;
13592;SDS011;6867;50.998;4.250;2023-10-08T10:18:28;10.60;;;5.82;;
13592;SDS011;6867;50.998;4.250;2023-10-08T10:20:57;15.35;;;6.35;;
13592;SDS011;6867;50.998;4.250;2023-10-08T10:23:35;13.65;;;6.15;;
13592;SDS011;6867;50.998;4.250;2023-10-08T10:26:04;14.25;;;7.13;;
13592;SDS011;6867;50.998;4.250;2023-10-08T10:29:01;12.63;;;5.88;;
13592;SDS011;6867;50.998;4.250;2023-10-08T10:31:44;14.15;;;7.07;;
13592;SDS011;6867;50.998;4.250;2023-10-08T10:34:14;16.02;;;6.70;;
13592;SDS011;6867;50.998;4.250;2023-10-08T10:36:42;11.18;;;6.43;;
13592;SDS011;6867;50.998;4.250;2023-10-08T10:39:13;13.38;;;6.45;;
13592;SDS011;6867;50.998;4.250;2023-10-08T10:41:42;13.88;;;6.03;;
13592;SDS011;6867;50.998;4.250;2023-10-08T10:44:10;12.63;;;6.15;;
13592;SDS011;6867;50.998;4.250;2023-10-08T10:46:39;11.63;;;6.40;;
13592;SDS011;6867;50.998;4.250;2023-10-08T10:49:08;12.85;;;6.15;;
13592;SDS011;6867;50.998;4.250;2023-10-08T10:51:45;11.80;;;6.60;;
13592;SDS011;6867;50.998;4.250;2023-10-08T10:54:15;15.95;;;6.38;;
13592;SDS011;6867;50.998;4.250;2023-10-08T10:56:45;12.52;;;6.25;;
13592;SDS011;6867;50.998;4.250;2023-10-08T10:59:12;10.10;;;6.22;;
13592;SDS011;6867;50.998;4.250;2023-10-08T11:01:44;13.65;;;6.15;;
13592;SDS011;6867;50.998;4.250;2023-10-08T11:04:17;14.18;;;5.93;;
13592;SDS011;6867;50.998;4.250;2023-10-08T11:06:46;11.15;;;6.97;;
13592;SDS011;6867;50.998;4.250;2023-10-08T11:09:19;13.73;;;5.82;;
13592;SDS011;6867;50.998;4.250;2023-10-08T11:12:01;13.00;;;6.07;;
13592;SDS011;6867;50.998;4.250;2023-10-08T11:14:36;13.25;;;6.43;;
13592;SDS011;6867;50.998;4.250;2023-10-08T11:17:09;13.00;;;5.72;;
13592;SDS011;6867;50.998;4.250;2023-10-08T11:19:40;11.45;;;5.57;;
13592;SDS011;6867;50.998;4.250;2023-10-08T11:22:09;12.88;;;5.85;;
13592;SDS011;6867;50.998;4.250;2023-10-08T11:24:41;12.20;;;6.30;;
13592;SDS011;6867;50.998;4.250;2023-10-08T11:27:12;15.90;;;5.90;;
13592;SDS011;6867;50.998;4.250;2023-10-08T11:29:43;15.30;;;5.80;;
13592;SDS011;6867;50.998;4.250;2023-10-08T11:32:12;16.80;;;5.95;;
13592;SDS011;6867;50.998;4.250;2023-10-08T11:34:42;10.23;;;6.05;;
13592;SDS011;6867;50.998;4.250;2023-10-08T11:37:16;9.98;;;5.50;;
13592;SDS011;6867;50.998;4.250;2023-10-08T11:39:53;9.43;;;5.70;;
13592;SDS011;6867;50.998;4.250;2023-10-08T11:42:23;13.07;;;6.13;;
13592;SDS011;6867;50.998;4.250;2023-10-08T11:45:09;12.60;;;5.80;;
13592;SDS011;6867;50.998;4.250;2023-10-08T11:47:49;12.90;;;5.80;;
13592;SDS011;6867;50.998;4.250;2023-10-08T11:50:22;10.57;;;5.90;;
13592;SDS011;6867;50.998;4.250;2023-10-08T11:52:57;8.48;;;5.22;;
13592;SDS011;6867;50.998;4.250;2023-10-08T11:55:28;9.98;;;5.22;;
13592;SDS011;6867;50.998;4.250;2023-10-08T11:58:00;10.43;;;5.25;;
13592;SDS011;6867;50.998;4.250;2023-10-08T12:00:35;9.93;;;5.07;;
13592;SDS011;6867;50.998;4.250;2023-10-08T12:03:09;13.20;;;4.95;;
13592;SDS011;6867;50.998;4.250;2023-10-08T12:05:36;8.57;;;5.25;;
13592;SDS011;6867;50.998;4.250;2023-10-08T12:08:05;10.27;;;5.00;;
13592;SDS011;6867;50.998;4.250;2023-10-08T12:10:33;12.30;;;5.10;;
13592;SDS011;6867;50.998;4.250;2023-10-08T12:13:00;8.80;;;4.45;;
13592;SDS011;6867;50.998;4.250;2023-10-08T12:15:30;8.73;;;4.80;;
13592;SDS011;6867;50.998;4.250;2023-10-08T12:18:03;10.75;;;5.32;;
13592;SDS011;6867;50.998;4.250;2023-10-08T12:20:40;10.55;;;4.93;;
13592;SDS011;6867;50.998;4.250;2023-10-08T12:23:10;8.90;;;4.95;;
13592;SDS011;6867;50.998;4.250;2023-10-08T12:25:44;9.00;;;4.20;;
13592;SDS011;6867;50.998;4.250;2023-10-08T12:28:16;8.80;;;4.60;;
13592;SDS011;6867;50.998;4.250;2023-10-08T12:30:44;11.02;;;5.13;;
13592;SDS011;6867;50.998;4.250;2023-10-08T12:33:11;10.23;;;5.22;;
13592;SDS011;6867;50.998;4.250;2023-10-08T12:35:41;11.07;;;4.63;;
13592;SDS011;6867;50.998;4.250;2023-10-08T12:38:08;10.77;;;4.38;;
13592;SDS011;6867;50.998;4.250;2023-10-08T12:40:36;8.27;;;4.82;;
13592;SDS011;6867;50.998;4.250;2023-10-08T12:43:17;11.70;;;4.68;;
13592;SDS011;6867;50.998;4.250;2023-10-08T12:45:45;14.60;;;6.45;;
13592;SDS011;6867;50.998;4.250;2023-10-08T12:48:17;11.30;;;5.47;;
13592;SDS011;6867;50.998;4.250;2023-10-08T12:50:45;14.52;;;5.50;;
13592;SDS011;6867;50.998;4.250;2023-10-08T12:53:18;13.07;;;4.47;;
13592;SDS011;6867;50.998;4.250;2023-10-08T12:55:50;12.45;;;5.30;;
13592;SDS011;6867;50.998;4.250;2023-10-08T12:58:20;7.95;;;4.55;;
13592;SDS011;6867;50.998;4.250;2023-10-08T13:00:50;9.95;;;5.75;;
13592;SDS011;6867;50.998;4.250;2023-10-08T13:03:22;11.75;;;6.25;;
13592;SDS011;6867;50.998;4.250;2023-10-08T13:05:50;9.70;;;4.75;;
13592;SDS011;6867;50.998;4.250;2023-10-08T13:08:18;9.30;;;4.75;;
13592;SDS011;6867;50.998;4.250;2023-10-08T13:10:45;10.65;;;5.15;;
13592;SDS011;6867;50.998;4.250;2023-10-08T13:13:13;9.90;;;5.43;;
13592;SDS011;6867;50.998;4.250;2023-10-08T13:15:40;8.57;;;5.43;;
13592;SDS011;6867;50.998;4.250;2023-10-08T13:18:08;7.97;;;4.78;;
13592;SDS011;6867;50.998;4.250;2023-10-08T13:20:35;8.48;;;4.15;;
13592;SDS011;6867;50.998;4.250;2023-10-08T13:23:01;9.02;;;4.85;;
13592;SDS011;6867;50.998;4.250;2023-10-08T13:25:29;11.75;;;4.88;;
13592;SDS011;6867;50.998;4.250;2023-10-08T13:27:58;12.57;;;5.18;;
13592;SDS011;6867;50.998;4.250;2023-10-08T13:30:27;8.77;;;5.00;;
13592;SDS011;6867;50.998;4.250;2023-10-08T13:32:54;11.30;;;4.97;;
13592;SDS011;6867;50.998;4.250;2023-10-08T13:35:21;10.32;;;5.38;;
13592;SDS011;6867;50.998;4.250;2023-10-08T13:37:47;9.07;;;5.10;;
13592;SDS011;6867;50.998;4.250;2023-10-08T13:40:14;9.75;;;5.72;;
13592;SDS011;6867;50.998;4.250;2023-10-08T13:42:41;11.10;;;5.95;;
13592;SDS011;6867;50.998;4.250;2023-10-08T13:45:08;6.97;;;4.88;;
13592;SDS011;6867;50.998;4.250;2023-10-08T13:47:43;9.38;;;4.90;;
13592;SDS011;6867;50.998;4.250;2023-10-08T13:50:10;7.32;;;4.65;;
13592;SDS011;6867;50.998;4.250;2023-10-08T13:52:38;9.18;;;4.88;;
13592;SDS011;6867;50.998;4.250;2023-10-08T13:55:05;8.40;;;4.68;;
13592;SDS011;6867;50.998;4.250;2023-10-08T13:57:38;11.73;;;5.20;;
13592;SDS011;6867;50.998;4.250;2023-10-08T14:00:07;9.80;;;5.07;;
13592;SDS011;6867;50.998;4.250;2023-10-08T14:02:40;11.82;;;5.35;;
13592;SDS011;6867;50.998;4.250;2023-10-08T14:05:09;10.93;;;5.10;;
13592;SDS011;6867;50.998;4.250;2023-10-08T14:07:40;9.00;;;4.57;;
13592;SDS011;6867;50.998;4.250;2023-10-08T14:10:09;8.38;;;4.85;;
13592;SDS011;6867;50.998;4.250;2023-10-08T14:12:44;8.13;;;4.45;;
13592;SDS011;6867;50.998;4.250;2023-10-08T14:15:14;8.57;;;4.72;;
13592;SDS011;6867;50.998;4.250;2023-10-08T14:17:43;8.73;;;4.75;;
13592;SDS011;6867;50.998;4.250;2023-10-08T14:20:13;10.68;;;4.40;;
13592;SDS011;6867;50.998;4.250;2023-10-08T14:22:46;8.82;;;4.78;;
13592;SDS011;6867;50.998;4.250;2023-10-08T14:25:17;11.23;;;5.45;;
13592;SDS011;6867;50.998;4.250;2023-10-08T14:27:49;11.73;;;5.00;;
13592;SDS011;6867;50.998;4.250;2023-10-08T14:30:18;7.53;;;4.43;;
13592;SDS011;6867;50.998;4.250;2023-10-08T14:32:48;9.50;;;5.10;;
13592;SDS011;6867;50.998;4.250;2023-10-08T14:35:15;11.38;;;5.20;;
13592;SDS011;6867;50.998;4.250;2023-10-08T14:37:59;11.80;;;5.32;;
13592;SDS011;6867;50.998;4.250;2023-10-08T14:40:43;8.27;;;4.43;;
13592;SDS011;6867;50.998;4.250;2023-10-08T14:43:27;9.77;;;4.70;;
13592;SDS011;6867;50.998;4.250;2023-10-08T14:45:59;10.25;;;4.70;;
13592;SDS011;6867;50.998;4.250;2023-10-08T14:48:30;10.52;;;5.13;;
13592;SDS011;6867;50.998;4.250;2023-10-08T14:51:00;7.45;;;4.43;;
13592;SDS011;6867;50.998;4.250;2023-10-08T14:53:27;11.48;;;4.75;;
13592;SDS011;6867;50.998;4.250;2023-10-08T14:55:55;6.85;;;4.22;;
13592;SDS011;6867;50.998;4.250;2023-10-08T14:58:22;9.85;;;5.32;;
13592;SDS011;6867;50.998;4.250;2023-10-08T15:00:50;7.60;;;5.00;;
13592;SDS011;6867;50.998;4.250;2023-10-08T15:03:19;9.63;;;4.78;;
13592;SDS011;6867;50.998;4.250;2023-10-08T15:05:47;8.65;;;4.55;;
13592;SDS011;6867;50.998;4.250;2023-10-08T15:08:15;7.50;;;4.57;;
13592;SDS011;6867;50.998;4.250;2023-10-08T15:10:43;10.02;;;5.20;;
13592;SDS011;6867;50.998;4.250;2023-10-08T15:13:12;9.63;;;4.78;;
13592;SDS011;6867;50.998;4.250;2023-10-08T15:15:38;11.38;;;4.95;;
13592;SDS011;6867;50.998;4.250;2023-10-08T15:18:05;9.75;;;4.82;;
13592;SDS011;6867;50.998;4.250;2023-10-08T15:20:32;6.65;;;4.10;;
13592;SDS011;6867;50.998;4.250;2023-10-08T15:23:01;10.40;;;4.70;;